createdAt,value
2018-04-24T00:00:34.470Z,5.60
2018-04-24T00:03:01.914Z,5.10
2018-04-24T00:05:30.121Z,5.40
2018-04-24T00:07:57.561Z,6.40
2018-04-24T00:10:25.002Z,5.33
2018-04-24T00:12:52.450Z,5.23
2018-04-24T00:15:20.650Z,5.57
2018-04-24T00:17:48.854Z,5.30
2018-04-24T00:20:17.058Z,6.40
2018-04-24T00:22:44.502Z,5.67
2018-04-24T00:25:11.933Z,5.37
2018-04-24T00:27:39.373Z,5.40
2018-04-24T00:30:06.818Z,5.67
2018-04-24T00:32:34.250Z,5.87
2018-04-24T00:35:02.450Z,5.43
2018-04-24T00:37:30.661Z,6.27
2018-04-24T00:39:58.096Z,5.80
2018-04-24T00:42:25.537Z,5.07
2018-04-24T00:44:52.970Z,5.73
2018-04-24T00:47:20.414Z,6.10
2018-04-24T00:49:47.841Z,5.57
2018-04-24T00:52:16.051Z,5.47
2018-04-24T00:54:44.288Z,4.97
2018-04-24T00:57:11.722Z,5.93
2018-04-24T00:59:39.921Z,5.87
2018-04-24T01:02:08.125Z,5.40
2018-04-24T01:04:36.366Z,5.27
2018-04-24T01:07:03.810Z,6.20
2018-04-24T01:09:32.038Z,5.50
2018-04-24T01:11:59.486Z,5.13
2018-04-24T01:14:27.686Z,6.50
2018-04-24T01:16:55.894Z,6.00
2018-04-24T01:19:23.398Z,5.90
2018-04-24T01:21:50.850Z,5.63
2018-04-24T01:24:19.038Z,5.47
2018-04-24T01:26:47.278Z,6.40
2018-04-24T01:29:14.762Z,5.17
2018-04-24T01:31:42.202Z,6.00
2018-04-24T01:34:10.402Z,5.97
2018-04-24T01:36:38.609Z,6.70
2018-04-24T01:39:06.046Z,6.33
2018-04-24T01:41:34.709Z,6.57
2018-04-24T01:44:03.566Z,6.57
2018-04-24T01:46:31.002Z,7.50
2018-04-24T01:48:58.454Z,6.93
2018-04-24T01:51:25.886Z,6.63
2018-04-24T01:53:53.329Z,6.30
2018-04-24T01:56:21.525Z,5.80
2018-04-24T01:58:49.738Z,6.90
2018-04-24T02:01:17.944Z,7.07
2018-04-24T02:03:45.382Z,6.50
2018-04-24T02:06:12.817Z,7.83
2018-04-24T02:08:40.249Z,8.20
2018-04-24T02:11:07.698Z,6.97
2018-04-24T02:13:35.130Z,7.73
2018-04-24T02:16:03.349Z,7.57
2018-04-24T02:18:30.790Z,8.43
2018-04-24T02:20:58.234Z,8.50
2018-04-24T02:23:25.666Z,8.47
2018-04-24T02:25:53.873Z,8.40
2018-04-24T02:28:22.069Z,7.87
2018-04-24T02:30:50.278Z,7.50
2018-04-24T02:33:17.724Z,9.33
2018-04-24T02:35:45.161Z,9.43
2018-04-24T02:38:12.590Z,8.33
2018-04-24T02:40:40.029Z,8.20
2018-04-24T02:43:07.462Z,8.50
2018-04-24T02:45:35.671Z,9.70
2018-04-24T02:48:03.870Z,9.40
2018-04-24T02:50:32.077Z,8.20
2018-04-24T02:52:59.510Z,8.23
2018-04-24T02:55:26.951Z,8.13
2018-04-24T02:57:54.382Z,8.90
2018-04-24T03:00:21.822Z,9.53
2018-04-24T03:02:49.253Z,8.80
2018-04-24T03:05:16.703Z,9.50
2018-04-24T03:07:44.139Z,9.23
2018-04-24T03:10:12.359Z,9.10
2018-04-24T03:12:39.785Z,8.30
2018-04-24T03:15:07.231Z,9.10
2018-04-24T03:17:34.661Z,8.40
2018-04-24T03:20:02.879Z,9.13
2018-04-24T03:22:30.309Z,9.20
2018-04-24T03:24:57.749Z,8.50
2018-04-24T03:27:25.182Z,8.40
2018-04-24T03:29:52.626Z,8.73
2018-04-24T03:32:20.063Z,9.37
2018-04-24T03:34:47.513Z,8.90
2018-04-24T03:37:14.944Z,9.30
2018-04-24T03:39:42.381Z,7.73
2018-04-24T03:42:09.823Z,8.43
2018-04-24T03:44:37.257Z,9.23
2018-04-24T03:47:04.697Z,8.73
2018-04-24T03:49:32.141Z,8.73
2018-04-24T03:52:00.345Z,8.87
2018-04-24T03:54:27.778Z,9.97
2018-04-24T03:56:55.221Z,9.30
2018-04-24T03:59:22.670Z,9.43
2018-04-24T04:01:50.097Z,8.83
2018-04-24T04:04:17.532Z,9.47
2018-04-24T04:06:45.738Z,9.00
2018-04-24T04:09:13.939Z,9.40
2018-04-24T04:11:42.145Z,8.00
2018-04-24T04:14:10.350Z,8.40
2018-04-24T04:16:37.798Z,8.37
2018-04-24T04:19:16.985Z,9.00
2018-04-24T04:22:06.042Z,9.30
2018-04-24T04:24:42.174Z,10.07
2018-04-24T04:27:09.626Z,8.53
2018-04-24T04:29:37.897Z,8.33
2018-04-24T04:32:05.343Z,7.30
2018-04-24T04:34:32.787Z,8.90
2018-04-24T04:37:00.994Z,9.00
2018-04-24T04:39:29.190Z,8.70
2018-04-24T04:41:57.402Z,10.50
2018-04-24T04:44:24.834Z,8.57
2018-04-24T04:46:52.274Z,8.10
2018-04-24T04:49:19.715Z,9.50
2018-04-24T04:51:47.158Z,10.00
2018-04-24T04:54:14.594Z,9.50
2018-04-24T04:56:42.810Z,9.47
2018-04-24T04:59:10.250Z,9.03
2018-04-24T05:01:37.681Z,8.40
2018-04-24T05:04:05.126Z,9.50
2018-04-24T05:06:33.334Z,9.77
2018-04-24T05:09:01.555Z,9.30
2018-04-24T05:11:28.977Z,8.87
2018-04-24T05:13:56.418Z,9.80
2018-04-24T05:16:23.854Z,9.87
2018-04-24T05:18:51.294Z,9.40
2018-04-24T05:21:18.735Z,9.70
2018-04-24T05:23:46.940Z,9.73
2018-04-24T05:26:15.142Z,8.23
2018-04-24T05:28:42.657Z,10.17
2018-04-24T05:31:10.025Z,10.20
2018-04-24T05:33:37.479Z,9.80
2018-04-24T05:36:05.704Z,9.40
2018-04-24T05:38:33.139Z,10.30
2018-04-24T05:41:00.574Z,11.07
2018-04-24T05:43:28.022Z,11.40
2018-04-24T05:45:55.492Z,10.23
2018-04-24T05:48:22.901Z,11.00
2018-04-24T05:50:50.337Z,9.87
2018-04-24T05:53:17.783Z,12.03
2018-04-24T05:55:45.218Z,11.53
2018-04-24T05:58:13.426Z,11.20
2018-04-24T06:00:40.857Z,9.83
2018-04-24T06:03:08.595Z,11.00
2018-04-24T06:05:35.946Z,11.67
2018-04-24T06:08:03.383Z,10.57
2018-04-24T06:10:30.830Z,10.63
2018-04-24T06:12:59.039Z,10.40
2018-04-24T06:15:26.498Z,10.50
2018-04-24T06:17:54.702Z,11.30
2018-04-24T06:20:22.914Z,10.83
2018-04-24T06:22:50.353Z,11.30
2018-04-24T06:25:17.794Z,11.80
2018-04-24T06:27:45.231Z,12.17
2018-04-24T06:30:13.478Z,10.73
2018-04-24T06:32:41.651Z,10.50
2018-04-24T06:35:09.103Z,11.67
2018-04-24T06:37:36.530Z,12.63
2018-04-24T06:40:03.982Z,12.27
2018-04-24T06:42:32.185Z,11.60
2018-04-24T06:45:00.398Z,11.70
2018-04-24T06:47:27.845Z,10.70
2018-04-24T06:49:55.297Z,11.10
2018-04-24T06:52:22.747Z,11.77
2018-04-24T06:54:50.189Z,10.20
2018-04-24T06:57:17.621Z,10.33
2018-04-24T06:59:45.065Z,11.50
2018-04-24T07:02:13.270Z,10.70
2018-04-24T07:04:41.483Z,10.43
2018-04-24T07:07:08.923Z,10.97
2018-04-24T07:09:36.362Z,10.73
2018-04-24T07:12:03.789Z,10.83
2018-04-24T07:14:32.007Z,10.60
2018-04-24T07:17:00.205Z,10.93
2018-04-24T07:19:27.658Z,10.53
2018-04-24T07:21:55.090Z,10.70
2018-04-24T07:24:22.533Z,10.37
2018-04-24T07:26:50.746Z,10.53
2018-04-24T07:29:19.177Z,11.17
2018-04-24T07:31:46.613Z,10.63
2018-04-24T07:34:14.827Z,12.40
2018-04-24T07:36:43.043Z,11.63
2018-04-24T07:39:10.478Z,10.63
2018-04-24T07:41:37.917Z,10.60
2018-04-24T07:44:05.356Z,11.00
2018-04-24T07:46:33.664Z,10.00
2018-04-24T07:49:01.009Z,10.53
2018-04-24T07:51:29.222Z,10.50
2018-04-24T07:53:56.653Z,9.90
2018-04-24T07:56:24.097Z,8.63
2018-04-24T07:58:52.299Z,9.20
2018-04-24T08:01:20.507Z,8.50
2018-04-24T08:03:48.706Z,8.87
2018-04-24T08:06:16.914Z,7.93
2018-04-24T08:08:44.349Z,9.23
2018-04-24T08:11:11.790Z,9.77
2018-04-24T08:13:39.226Z,9.13
2018-04-24T08:16:06.665Z,9.00
2018-04-24T08:18:34.105Z,8.40
2018-04-24T08:21:02.702Z,8.97
2018-04-24T08:23:30.118Z,9.33
2018-04-24T08:25:57.570Z,8.30
2018-04-24T08:28:25.773Z,7.90
2018-04-24T08:30:53.975Z,7.47
2018-04-24T08:33:22.185Z,7.80
2018-04-24T08:35:49.622Z,6.87
2018-04-24T08:38:17.062Z,6.60
2018-04-24T08:40:44.535Z,7.07
2018-04-24T08:43:12.710Z,6.93
2018-04-24T08:45:40.917Z,5.93
2018-04-24T08:48:09.126Z,6.50
2018-04-24T08:50:36.557Z,7.00
2018-04-24T08:53:04.008Z,5.67
2018-04-24T08:55:31.447Z,5.80
2018-04-24T08:57:59.657Z,6.43
2018-04-24T09:00:27.090Z,6.37
2018-04-24T09:02:54.542Z,6.17
2018-04-24T09:05:21.974Z,6.17
2018-04-24T09:07:49.417Z,5.13
2018-04-24T09:10:16.850Z,5.77
2018-04-24T09:12:45.063Z,5.40
2018-04-24T09:15:12.497Z,5.57
2018-04-24T09:17:39.938Z,6.10
2018-04-24T09:20:07.379Z,6.47
2018-04-24T09:22:35.599Z,5.13
2018-04-24T09:25:03.032Z,5.73
2018-04-24T09:27:30.474Z,5.60
2018-04-24T09:30:03.692Z,5.80
2018-04-24T09:32:31.139Z,5.63
2018-04-24T09:34:59.333Z,4.93
2018-04-24T09:37:27.537Z,4.10
2018-04-24T09:39:55.750Z,5.40
2018-04-24T09:42:23.181Z,4.37
2018-04-24T09:44:50.621Z,4.53
2018-04-24T09:47:18.063Z,4.40
2018-04-24T09:49:45.502Z,4.63
2018-04-24T09:52:12.933Z,4.70
2018-04-24T09:54:41.145Z,4.70
2018-04-24T09:57:09.345Z,3.80
2018-04-24T09:59:37.555Z,4.60
2018-04-24T10:02:04.991Z,5.20
2018-04-24T10:04:32.438Z,5.07
2018-04-24T10:06:59.870Z,3.90
2018-04-24T10:09:28.083Z,3.63
2018-04-24T10:11:56.287Z,3.93
2018-04-24T10:14:24.500Z,6.23
2018-04-24T10:16:51.930Z,5.03
2018-04-24T10:19:19.375Z,4.37
2018-04-24T10:21:46.806Z,4.40
2018-04-24T10:24:14.255Z,3.47
2018-04-24T10:26:41.681Z,4.87
2018-04-24T10:29:09.902Z,4.37
2018-04-24T10:31:37.326Z,3.80
2018-04-24T10:34:04.765Z,3.60
2018-04-24T10:36:32.193Z,3.73
2018-04-24T10:38:59.634Z,3.80
2018-04-24T10:41:27.085Z,3.60
2018-04-24T10:43:55.375Z,4.63
2018-04-24T10:46:23.486Z,4.00
2018-04-24T10:48:51.694Z,3.73
2018-04-24T10:51:19.126Z,3.97
2018-04-24T10:53:46.566Z,4.30
2018-04-24T10:56:14.001Z,3.73
2018-04-24T10:58:41.453Z,3.10
2018-04-24T11:01:08.881Z,3.87
2018-04-24T11:03:37.103Z,3.47
2018-04-24T11:06:04.566Z,3.63
2018-04-24T11:08:32.766Z,3.50
2018-04-24T11:11:00.980Z,3.20
2018-04-24T11:13:28.406Z,3.90
2018-04-24T11:15:55.846Z,2.80
2018-04-24T11:18:23.279Z,3.43
2018-04-24T11:20:50.718Z,4.80
2018-04-24T11:23:18.154Z,4.37
2018-04-24T11:25:46.362Z,4.23
2018-04-24T11:28:14.557Z,4.30
2018-04-24T11:30:42.762Z,4.53
2018-04-24T11:33:10.958Z,4.17
2018-04-24T11:35:39.171Z,3.83
2018-04-24T11:38:06.601Z,3.93
2018-04-24T11:40:34.074Z,4.47
2018-04-24T11:43:01.530Z,4.10
2018-04-24T11:45:29.049Z,3.90
2018-04-24T11:47:57.178Z,3.90
2018-04-24T11:50:25.383Z,3.63
2018-04-24T11:52:53.579Z,4.00
2018-04-24T11:55:21.785Z,4.87
2018-04-24T11:57:49.218Z,3.70
2018-04-24T12:00:16.658Z,3.80
2018-04-24T12:02:44.235Z,4.27
2018-04-24T12:05:11.530Z,4.17
2018-04-24T12:07:38.972Z,3.90
2018-04-24T12:10:07.243Z,4.03
2018-04-24T12:12:35.391Z,6.00
2018-04-24T12:15:02.827Z,3.60
2018-04-24T12:17:30.272Z,4.03
2018-04-24T12:19:57.706Z,3.20
2018-04-24T12:22:25.923Z,2.77
2018-04-24T12:24:53.353Z,3.50
2018-04-24T12:27:20.797Z,4.10
2018-04-24T12:29:48.229Z,3.10
2018-04-24T12:32:15.672Z,4.03
2018-04-24T12:34:43.109Z,3.50
2018-04-24T12:37:10.537Z,3.73
2018-04-24T12:39:37.974Z,3.30
2018-04-24T12:42:06.187Z,3.70
2018-04-24T12:44:33.613Z,3.10
2018-04-24T12:47:01.054Z,2.73
2018-04-24T12:49:28.490Z,2.17
2018-04-24T12:51:55.934Z,3.40
2018-04-24T12:54:23.373Z,2.43
2018-04-24T12:56:51.583Z,2.40
2018-04-24T12:59:19.779Z,2.73
2018-04-24T13:01:47.994Z,3.10
2018-04-24T13:04:15.431Z,2.53
2018-04-24T13:06:42.874Z,2.80
2018-04-24T13:09:10.314Z,2.60
2018-04-24T13:11:38.509Z,3.30
2018-04-24T13:14:06.734Z,2.77
2018-04-24T13:16:34.867Z,2.70
2018-04-24T13:19:02.294Z,2.70
2018-04-24T13:21:30.485Z,2.47
2018-04-24T13:23:58.702Z,2.90
2018-04-24T13:26:26.902Z,3.17
2018-04-24T13:28:54.337Z,2.70
2018-04-24T13:31:21.761Z,2.70
2018-04-24T13:33:49.202Z,3.10
2018-04-24T13:36:16.642Z,3.57
2018-04-24T13:38:44.077Z,2.67
2018-04-24T13:41:11.525Z,2.70
2018-04-24T13:43:38.941Z,3.10
2018-04-24T13:46:06.373Z,2.80
2018-04-24T13:48:33.819Z,2.47
2018-04-24T13:51:02.021Z,2.80
2018-04-24T13:53:29.492Z,3.10
2018-04-24T13:55:56.903Z,2.73
2018-04-24T13:58:24.337Z,3.30
2018-04-24T14:00:51.798Z,2.53
2018-04-24T14:03:19.210Z,3.27
2018-04-24T14:05:47.406Z,3.87
2018-04-24T14:08:15.611Z,2.80
2018-04-24T14:10:43.809Z,2.77
2018-04-24T14:13:12.050Z,3.93
2018-04-24T14:15:39.484Z,3.50
2018-04-24T14:18:06.913Z,2.80
2018-04-24T14:20:34.365Z,3.00
2018-04-24T14:23:01.806Z,3.40
2018-04-24T14:25:29.251Z,3.07
2018-04-24T14:27:56.690Z,3.10
2018-04-24T14:30:24.130Z,3.13
2018-04-24T14:32:51.561Z,3.60
2018-04-24T14:35:18.993Z,3.60
2018-04-24T14:37:46.424Z,3.70
2018-04-24T14:40:13.863Z,3.00
2018-04-24T14:42:41.313Z,3.50
2018-04-24T14:45:08.736Z,3.40
2018-04-24T14:47:36.169Z,3.13
2018-04-24T14:50:04.434Z,3.20
2018-04-24T14:52:31.806Z,3.37
2018-04-24T14:54:59.250Z,3.47
2018-04-24T14:57:26.687Z,2.23
2018-04-24T14:59:54.137Z,4.20
2018-04-24T15:02:21.563Z,3.07
2018-04-24T15:04:48.998Z,2.83
2018-04-24T15:07:16.466Z,3.20
2018-04-24T15:09:43.876Z,3.43
2018-04-24T15:12:11.311Z,2.87
2018-04-24T15:14:39.510Z,3.33
2018-04-24T15:17:07.722Z,2.80
2018-04-24T15:19:35.918Z,3.30
2018-04-24T15:22:04.155Z,3.13
2018-04-24T15:24:31.571Z,3.40
2018-04-24T15:26:59.009Z,3.53
2018-04-24T15:29:26.447Z,3.10
2018-04-24T15:31:53.886Z,3.00
2018-04-24T15:34:21.325Z,3.07
2018-04-24T15:36:49.525Z,3.03
2018-04-24T15:39:17.721Z,3.60
2018-04-24T15:41:45.929Z,3.40
2018-04-24T15:44:14.121Z,3.27
2018-04-24T15:46:42.331Z,2.93
2018-04-24T15:49:09.771Z,3.77
2018-04-24T15:51:37.209Z,3.27
2018-04-24T15:54:04.669Z,3.50
2018-04-24T15:56:32.872Z,3.17
2018-04-24T15:59:00.314Z,3.63
2018-04-24T16:01:27.754Z,3.80
2018-04-24T16:03:55.177Z,3.20
2018-04-24T16:06:22.609Z,2.77
2018-04-24T16:08:50.051Z,3.90
2018-04-24T16:11:17.481Z,3.17
2018-04-24T16:13:44.936Z,3.87
2018-04-24T16:16:12.354Z,3.30
2018-04-24T16:18:39.793Z,4.03
2018-04-24T16:21:07.994Z,2.90
2018-04-24T16:23:36.202Z,3.73
2018-04-24T16:26:04.398Z,3.13
2018-04-24T16:28:32.610Z,3.10
2018-04-24T16:31:00.804Z,3.30
2018-04-24T16:33:29.011Z,3.40
2018-04-24T16:35:56.447Z,3.37
2018-04-24T16:38:23.886Z,3.03
2018-04-24T16:40:51.318Z,3.00
2018-04-24T16:43:18.758Z,3.10
2018-04-24T16:45:46.198Z,3.60
2018-04-24T16:48:13.646Z,3.13
2018-04-24T16:50:41.079Z,3.30
2018-04-24T16:53:09.295Z,3.50
2018-04-24T16:55:36.725Z,3.00
2018-04-24T16:58:04.165Z,2.80
2018-04-24T17:00:31.631Z,3.77
2018-04-24T17:02:59.026Z,2.87
2018-04-24T17:05:26.483Z,2.97
2018-04-24T17:07:54.677Z,3.03
2018-04-24T17:10:22.878Z,2.40
2018-04-24T17:12:50.318Z,3.70
2018-04-24T17:15:17.762Z,3.13
2018-04-24T17:17:45.198Z,2.97
2018-04-24T17:20:13.406Z,2.83
2018-04-24T17:22:41.601Z,3.07
2018-04-24T17:25:09.806Z,3.80
2018-04-24T17:27:38.002Z,2.90
2018-04-24T17:30:06.213Z,2.57
2018-04-24T17:32:33.646Z,3.37
2018-04-24T17:35:01.090Z,3.33
2018-04-24T17:37:28.522Z,3.53
2018-04-24T17:39:55.957Z,3.20
2018-04-24T17:42:23.391Z,3.50
2018-04-24T17:44:50.830Z,2.63
2018-04-24T17:47:18.258Z,2.97
2018-04-24T17:49:46.461Z,3.13
2018-04-24T17:52:14.657Z,2.50
2018-04-24T17:54:42.874Z,4.17
2018-04-24T17:57:11.099Z,2.80
2018-04-24T17:59:38.513Z,3.50
2018-04-24T18:02:06.918Z,3.10
2018-04-24T18:04:34.366Z,2.90
2018-04-24T18:07:01.801Z,3.80
2018-04-24T18:09:30.018Z,3.23
2018-04-24T18:11:57.446Z,3.70
2018-04-24T18:14:24.882Z,3.60
2018-04-24T18:16:52.317Z,3.40
2018-04-24T18:19:19.749Z,3.30
2018-04-24T18:21:47.191Z,3.10
2018-04-24T18:24:14.622Z,3.53
2018-04-24T18:26:42.066Z,4.30
2018-04-24T18:29:10.261Z,4.40
2018-04-24T18:31:38.476Z,3.63
2018-04-24T18:34:06.669Z,3.90
2018-04-24T18:36:34.905Z,3.70
2018-04-24T18:39:02.337Z,3.40
2018-04-24T18:41:29.770Z,4.53
2018-04-24T18:43:57.201Z,4.17
2018-04-24T18:46:25.420Z,3.80
2018-04-24T18:48:52.913Z,4.00
2018-04-24T18:51:20.358Z,3.17
2018-04-24T18:53:48.593Z,3.57
2018-04-24T18:56:16.037Z,4.10
2018-04-24T18:58:44.234Z,4.17
2018-04-24T19:01:11.679Z,3.70
2018-04-24T19:03:39.110Z,4.67
2018-04-24T19:06:07.322Z,4.20
2018-04-24T19:08:34.745Z,3.63
2018-04-24T19:11:05.162Z,3.60
2018-04-24T19:13:32.606Z,3.70
2018-04-24T19:16:00.043Z,4.30
2018-04-24T19:18:33.069Z,4.50
2018-04-24T19:21:01.286Z,3.93
2018-04-24T19:23:28.717Z,4.20
2018-04-24T19:25:56.203Z,4.30
2018-04-24T19:28:23.645Z,4.80
2018-04-24T19:30:51.842Z,5.83
2018-04-24T19:33:20.053Z,5.40
2018-04-24T19:35:48.249Z,3.73
2018-04-24T19:38:16.454Z,4.70
2018-04-24T19:40:50.472Z,4.47
2018-04-24T19:43:17.927Z,4.67
2018-04-24T19:45:45.358Z,4.57
2018-04-24T19:48:18.526Z,4.23
2018-04-24T19:50:45.953Z,4.60
2018-04-24T19:53:13.453Z,4.60
2018-04-24T19:55:40.894Z,4.90
2018-04-24T19:58:08.333Z,4.13
2018-04-24T20:00:35.766Z,4.60
2018-04-24T20:03:03.965Z,5.33
2018-04-24T20:05:32.168Z,4.77
2018-04-24T20:08:00.378Z,5.10
2018-04-24T20:10:27.861Z,5.10
2018-04-24T20:12:55.251Z,5.00
2018-04-24T20:15:22.674Z,4.80
2018-04-24T20:17:50.118Z,4.77
2018-04-24T20:20:17.558Z,4.90
2018-04-24T20:22:45.770Z,4.30
2018-04-24T20:25:13.966Z,4.17
2018-04-24T20:27:42.174Z,4.50
2018-04-24T20:30:09.609Z,4.77
2018-04-24T20:32:37.053Z,5.07
2018-04-24T20:35:04.485Z,4.50
2018-04-24T20:37:31.933Z,4.80
2018-04-24T20:39:59.377Z,4.60
2018-04-24T20:42:26.806Z,4.50
2018-04-24T20:44:54.249Z,4.83
2018-04-24T20:47:21.707Z,5.40
2018-04-24T20:49:49.117Z,4.27
2018-04-24T20:52:16.550Z,4.40
2018-04-24T20:54:43.990Z,4.80
2018-04-24T20:57:11.426Z,4.73
2018-04-24T20:59:39.633Z,4.80
2018-04-24T21:02:07.065Z,5.10
2018-04-24T21:04:34.505Z,5.17
2018-04-24T21:07:01.942Z,4.50
2018-04-24T21:09:29.387Z,4.73
2018-04-24T21:11:56.821Z,4.87
2018-04-24T21:14:25.022Z,4.00
2018-04-24T21:16:53.223Z,4.97
2018-04-24T21:19:21.429Z,4.90
2018-04-24T21:21:49.627Z,4.53
2018-04-24T21:24:17.846Z,4.63
2018-04-24T21:26:45.282Z,4.60
2018-04-24T21:29:12.739Z,5.30
2018-04-24T21:31:40.176Z,4.97
2018-04-24T21:34:07.597Z,4.90
2018-04-24T21:36:35.038Z,4.80
2018-04-24T21:39:02.483Z,5.83
2018-04-24T21:41:29.918Z,5.00
2018-04-24T21:43:57.349Z,7.73
2018-04-24T21:46:24.793Z,5.37
2018-04-24T21:48:52.245Z,4.53
2018-04-24T21:51:19.681Z,4.60
2018-04-24T21:53:47.105Z,5.50
2018-04-24T21:56:14.555Z,5.67
2018-04-24T21:58:41.985Z,4.67
2018-04-24T22:01:09.429Z,4.90
2018-04-24T22:03:37.626Z,5.43
2018-04-24T22:06:06.831Z,5.10
2018-04-24T22:08:34.264Z,5.07
2018-04-24T22:11:01.705Z,5.00
2018-04-24T22:13:29.905Z,4.40
2018-04-24T22:15:58.106Z,5.30
2018-04-24T22:18:26.350Z,5.20
2018-04-24T22:20:54.520Z,4.50
2018-04-24T22:23:21.949Z,4.77
2018-04-24T22:25:49.389Z,5.37
2018-04-24T22:28:16.822Z,5.53
2018-04-24T22:30:44.279Z,4.50
2018-04-24T22:33:11.720Z,5.03
2018-04-24T22:35:39.908Z,5.00
2018-04-24T22:38:08.115Z,4.50
2018-04-24T22:40:35.579Z,5.30
2018-04-24T22:43:02.994Z,4.93
2018-04-24T22:45:30.427Z,5.20
2018-04-24T22:47:57.870Z,5.27
2018-04-24T22:50:25.298Z,5.00
2018-04-24T22:52:53.518Z,5.40
2018-04-24T22:55:20.947Z,5.37
2018-04-24T22:57:48.382Z,4.40
2018-04-24T23:00:15.813Z,5.57
2018-04-24T23:02:43.253Z,5.10
2018-04-24T23:05:10.704Z,4.80
2018-04-24T23:07:38.909Z,5.30
2018-04-24T23:10:06.617Z,4.30
2018-04-24T23:12:45.844Z,5.47
2018-04-24T23:15:25.190Z,5.60
2018-04-24T23:18:04.483Z,5.17
2018-04-24T23:20:32.181Z,4.93
2018-04-24T23:22:59.631Z,5.10
2018-04-24T23:25:27.069Z,5.13
2018-04-24T23:27:54.512Z,4.63
2018-04-24T23:30:22.702Z,4.80
2018-04-24T23:32:50.910Z,5.33
2018-04-24T23:35:19.114Z,5.13
2018-04-24T23:37:46.570Z,5.20
2018-04-24T23:40:13.994Z,4.17
2018-04-24T23:42:41.450Z,6.20
2018-04-24T23:45:09.655Z,5.37
2018-04-24T23:47:37.115Z,4.90
2018-04-24T23:50:05.309Z,5.47
2018-04-24T23:52:33.509Z,4.87
2018-04-24T23:55:01.718Z,5.73
2018-04-24T23:57:29.950Z,5.73
2018-04-24T23:59:57.395Z,5.17
